sensor_id;sensor_type;location;lat;lon;timestamp;P1;durP1;ratioP1;P2;durP2;ratioP2
9007;SDS011;62813;51.424;6.762;2023-02-03T00:00:57;16.20;;;12.00;;
9007;SDS011;62813;51.424;6.762;2023-02-03T00:03:23;19.47;;;12.30;;
9007;SDS011;62813;51.424;6.762;2023-02-03T00:05:50;19.70;;;11.97;;
9007;SDS011;62813;51.424;6.762;2023-02-03T00:08:16;19.30;;;12.33;;
9007;SDS011;62813;51.424;6.762;2023-02-03T00:10:44;19.90;;;11.47;;
9007;SDS011;62813;51.424;6.762;2023-02-03T00:13:11;16.40;;;11.30;;
9007;SDS011;62813;51.424;6.762;2023-02-03T00:15:39;15.03;;;11.27;;
9007;SDS011;62813;51.424;6.762;2023-02-03T00:18:06;14.90;;;11.33;;
9007;SDS011;62813;51.424;6.762;2023-02-03T00:20:32;19.37;;;12.67;;
9007;SDS011;62813;51.424;6.762;2023-02-03T00:23:05;14.93;;;11.37;;
9007;SDS011;62813;51.424;6.762;2023-02-03T00:25:33;15.27;;;11.67;;
9007;SDS011;62813;51.424;6.762;2023-02-03T00:28:00;17.73;;;12.03;;
9007;SDS011;62813;51.424;6.762;2023-02-03T00:30:27;19.87;;;12.43;;
9007;SDS011;62813;51.424;6.762;2023-02-03T00:32:54;18.47;;;12.43;;
9007;SDS011;62813;51.424;6.762;2023-02-03T00:35:21;17.40;;;12.33;;
9007;SDS011;62813;51.424;6.762;2023-02-03T00:37:51;16.87;;;12.07;;
9007;SDS011;62813;51.424;6.762;2023-02-03T00:40:19;17.23;;;12.00;;
9007;SDS011;62813;51.424;6.762;2023-02-03T00:42:47;21.40;;;12.57;;
9007;SDS011;62813;51.424;6.762;2023-02-03T00:45:14;16.10;;;12.30;;
9007;SDS011;62813;51.424;6.762;2023-02-03T00:47:41;15.23;;;11.53;;
9007;SDS011;62813;51.424;6.762;2023-02-03T00:50:08;19.47;;;11.63;;
9007;SDS011;62813;51.424;6.762;2023-02-03T00:52:35;15.07;;;12.07;;
9007;SDS011;62813;51.424;6.762;2023-02-03T00:55:02;17.83;;;11.70;;
9007;SDS011;62813;51.424;6.762;2023-02-03T00:57:29;22.03;;;12.03;;
9007;SDS011;62813;51.424;6.762;2023-02-03T00:59:56;17.07;;;11.70;;
9007;SDS011;62813;51.424;6.762;2023-02-03T01:02:23;16.67;;;11.87;;
9007;SDS011;62813;51.424;6.762;2023-02-03T01:04:50;16.90;;;11.57;;
9007;SDS011;62813;51.424;6.762;2023-02-03T01:07:16;16.20;;;11.60;;
9007;SDS011;62813;51.424;6.762;2023-02-03T01:09:43;13.60;;;11.27;;
9007;SDS011;62813;51.424;6.762;2023-02-03T01:12:09;15.33;;;10.77;;
9007;SDS011;62813;51.424;6.762;2023-02-03T01:14:36;13.80;;;10.77;;
9007;SDS011;62813;51.424;6.762;2023-02-03T01:17:02;17.60;;;11.70;;
9007;SDS011;62813;51.424;6.762;2023-02-03T01:19:29;20.37;;;11.63;;
9007;SDS011;62813;51.424;6.762;2023-02-03T01:21:56;14.43;;;11.13;;
9007;SDS011;62813;51.424;6.762;2023-02-03T01:24:22;18.10;;;11.53;;
9007;SDS011;62813;51.424;6.762;2023-02-03T01:26:49;20.07;;;11.63;;
9007;SDS011;62813;51.424;6.762;2023-02-03T01:29:15;15.67;;;10.57;;
9007;SDS011;62813;51.424;6.762;2023-02-03T01:31:42;18.50;;;10.33;;
9007;SDS011;62813;51.424;6.762;2023-02-03T01:34:10;14.97;;;10.23;;
9007;SDS011;62813;51.424;6.762;2023-02-03T01:36:39;16.13;;;10.40;;
9007;SDS011;62813;51.424;6.762;2023-02-03T01:39:05;18.23;;;10.23;;
9007;SDS011;62813;51.424;6.762;2023-02-03T01:41:33;17.33;;;11.13;;
9007;SDS011;62813;51.424;6.762;2023-02-03T01:44:30;20.23;;;10.60;;
9007;SDS011;62813;51.424;6.762;2023-02-03T01:52:31;15.70;;;9.63;;
9007;SDS011;62813;51.424;6.762;2023-02-03T01:54:59;19.07;;;9.70;;
9007;SDS011;62813;51.424;6.762;2023-02-03T01:57:33;15.83;;;10.13;;
9007;SDS011;62813;51.424;6.762;2023-02-03T02:00:04;13.97;;;9.13;;
9007;SDS011;62813;51.424;6.762;2023-02-03T02:02:33;15.57;;;9.57;;
9007;SDS011;62813;51.424;6.762;2023-02-03T02:05:24;13.63;;;9.70;;
9007;SDS011;62813;51.424;6.762;2023-02-03T02:07:57;18.00;;;10.00;;
9007;SDS011;62813;51.424;6.762;2023-02-03T02:10:30;18.77;;;9.80;;
9007;SDS011;62813;51.424;6.762;2023-02-03T02:12:57;14.57;;;8.97;;
9007;SDS011;62813;51.424;6.762;2023-02-03T02:15:29;14.97;;;8.80;;
9007;SDS011;62813;51.424;6.762;2023-02-03T02:18:33;18.13;;;9.40;;
9007;SDS011;62813;51.424;6.762;2023-02-03T02:21:10;12.57;;;8.67;;
9007;SDS011;62813;51.424;6.762;2023-02-03T02:35:55;13.27;;;8.63;;
9007;SDS011;62813;51.424;6.762;2023-02-03T02:38:37;16.47;;;8.37;;
9007;SDS011;62813;51.424;6.762;2023-02-03T02:43:58;16.93;;;7.80;;
9007;SDS011;62813;51.424;6.762;2023-02-03T02:49:12;10.80;;;6.53;;
9007;SDS011;62813;51.424;6.762;2023-02-03T02:51:45;12.80;;;6.40;;
9007;SDS011;62813;51.424;6.762;2023-02-03T02:54:15;13.27;;;6.27;;
9007;SDS011;62813;51.424;6.762;2023-02-03T02:56:47;11.90;;;6.23;;
9007;SDS011;62813;51.424;6.762;2023-02-03T02:59:16;16.80;;;6.47;;
9007;SDS011;62813;51.424;6.762;2023-02-03T03:01:43;10.90;;;5.90;;
9007;SDS011;62813;51.424;6.762;2023-02-03T03:04:10;9.10;;;6.00;;
9007;SDS011;62813;51.424;6.762;2023-02-03T03:06:50;14.10;;;5.40;;
9007;SDS011;62813;51.424;6.762;2023-02-03T03:09:45;11.50;;;5.33;;
9007;SDS011;62813;51.424;6.762;2023-02-03T03:12:21;11.20;;;5.47;;
9007;SDS011;62813;51.424;6.762;2023-02-03T03:14:54;9.33;;;5.50;;
9007;SDS011;62813;51.424;6.762;2023-02-03T03:17:27;10.07;;;4.67;;
9007;SDS011;62813;51.424;6.762;2023-02-03T03:19:59;12.40;;;5.40;;
9007;SDS011;62813;51.424;6.762;2023-02-03T03:22:33;10.73;;;5.00;;
9007;SDS011;62813;51.424;6.762;2023-02-03T03:25:48;11.33;;;5.43;;
9007;SDS011;62813;51.424;6.762;2023-02-03T03:28:12;11.30;;;4.93;;
9007;SDS011;62813;51.424;6.762;2023-02-03T03:30:46;8.60;;;4.37;;
9007;SDS011;62813;51.424;6.762;2023-02-03T03:33:12;11.57;;;5.40;;
9007;SDS011;62813;51.424;6.762;2023-02-03T03:35:47;10.37;;;5.27;;
9007;SDS011;62813;51.424;6.762;2023-02-03T03:38:22;13.60;;;4.90;;
9007;SDS011;62813;51.424;6.762;2023-02-03T03:41:01;9.90;;;4.90;;
9007;SDS011;62813;51.424;6.762;2023-02-03T03:43:33;10.37;;;4.53;;
9007;SDS011;62813;51.424;6.762;2023-02-03T03:46:09;9.87;;;4.53;;
9007;SDS011;62813;51.424;6.762;2023-02-03T03:48:51;11.50;;;4.57;;
9007;SDS011;62813;51.424;6.762;2023-02-03T03:51:25;10.03;;;4.80;;
9007;SDS011;62813;51.424;6.762;2023-02-03T03:53:58;9.80;;;4.70;;
9007;SDS011;62813;51.424;6.762;2023-02-03T03:56:39;11.63;;;4.60;;
9007;SDS011;62813;51.424;6.762;2023-02-03T03:59:10;5.73;;;4.10;;
9007;SDS011;62813;51.424;6.762;2023-02-03T04:01:40;13.20;;;5.20;;
9007;SDS011;62813;51.424;6.762;2023-02-03T04:04:08;12.20;;;4.73;;
9007;SDS011;62813;51.424;6.762;2023-02-03T04:06:37;11.37;;;4.07;;
9007;SDS011;62813;51.424;6.762;2023-02-03T04:09:04;10.80;;;4.60;;
9007;SDS011;62813;51.424;6.762;2023-02-03T04:11:31;9.77;;;4.33;;
9007;SDS011;62813;51.424;6.762;2023-02-03T04:14:16;10.50;;;4.17;;
9007;SDS011;62813;51.424;6.762;2023-02-03T04:16:43;10.67;;;4.47;;
9007;SDS011;62813;51.424;6.762;2023-02-03T04:19:09;10.23;;;4.80;;
9007;SDS011;62813;51.424;6.762;2023-02-03T04:21:36;11.17;;;3.93;;
9007;SDS011;62813;51.424;6.762;2023-02-03T04:24:03;13.43;;;3.90;;
9007;SDS011;62813;51.424;6.762;2023-02-03T04:26:29;11.97;;;4.73;;
9007;SDS011;62813;51.424;6.762;2023-02-03T04:28:56;11.27;;;4.83;;
9007;SDS011;62813;51.424;6.762;2023-02-03T04:31:22;7.80;;;4.60;;
9007;SDS011;62813;51.424;6.762;2023-02-03T04:33:49;14.20;;;4.27;;
9007;SDS011;62813;51.424;6.762;2023-02-03T04:36:15;8.83;;;4.20;;
9007;SDS011;62813;51.424;6.762;2023-02-03T04:38:42;11.03;;;5.03;;
9007;SDS011;62813;51.424;6.762;2023-02-03T04:41:09;13.80;;;4.93;;
9007;SDS011;62813;51.424;6.762;2023-02-03T04:43:35;11.10;;;4.53;;
9007;SDS011;62813;51.424;6.762;2023-02-03T04:46:02;7.73;;;4.07;;
9007;SDS011;62813;51.424;6.762;2023-02-03T04:48:29;8.50;;;3.90;;
9007;SDS011;62813;51.424;6.762;2023-02-03T04:50:59;8.63;;;4.00;;
9007;SDS011;62813;51.424;6.762;2023-02-03T04:53:28;11.33;;;4.43;;
9007;SDS011;62813;51.424;6.762;2023-02-03T04:55:55;7.80;;;3.83;;
9007;SDS011;62813;51.424;6.762;2023-02-03T04:58:22;9.27;;;4.70;;
9007;SDS011;62813;51.424;6.762;2023-02-03T05:00:48;9.33;;;4.17;;
9007;SDS011;62813;51.424;6.762;2023-02-03T05:03:15;8.67;;;3.80;;
9007;SDS011;62813;51.424;6.762;2023-02-03T05:05:41;9.30;;;3.97;;
9007;SDS011;62813;51.424;6.762;2023-02-03T05:08:08;6.40;;;3.80;;
9007;SDS011;62813;51.424;6.762;2023-02-03T05:10:34;9.20;;;3.97;;
9007;SDS011;62813;51.424;6.762;2023-02-03T05:13:01;11.07;;;3.47;;
9007;SDS011;62813;51.424;6.762;2023-02-03T05:15:28;7.40;;;3.90;;
9007;SDS011;62813;51.424;6.762;2023-02-03T05:17:54;8.87;;;3.80;;
9007;SDS011;62813;51.424;6.762;2023-02-03T05:20:21;9.07;;;3.90;;
9007;SDS011;62813;51.424;6.762;2023-02-03T05:22:48;8.53;;;3.60;;
9007;SDS011;62813;51.424;6.762;2023-02-03T05:25:14;9.00;;;3.17;;
9007;SDS011;62813;51.424;6.762;2023-02-03T05:27:41;7.93;;;3.27;;
9007;SDS011;62813;51.424;6.762;2023-02-03T05:30:08;7.10;;;3.07;;
9007;SDS011;62813;51.424;6.762;2023-02-03T05:32:35;10.80;;;3.37;;
9007;SDS011;62813;51.424;6.762;2023-02-03T05:35:02;8.83;;;3.10;;
9007;SDS011;62813;51.424;6.762;2023-02-03T05:37:29;5.73;;;3.20;;
9007;SDS011;62813;51.424;6.762;2023-02-03T05:39:55;7.67;;;3.20;;
9007;SDS011;62813;51.424;6.762;2023-02-03T05:42:46;8.07;;;3.40;;
9007;SDS011;62813;51.424;6.762;2023-02-03T05:45:13;8.13;;;2.90;;
9007;SDS011;62813;51.424;6.762;2023-02-03T05:47:40;14.37;;;3.40;;
9007;SDS011;62813;51.424;6.762;2023-02-03T05:50:07;9.53;;;3.07;;
9007;SDS011;62813;51.424;6.762;2023-02-03T05:52:34;6.30;;;3.10;;
9007;SDS011;62813;51.424;6.762;2023-02-03T05:55:01;14.10;;;3.97;;
9007;SDS011;62813;51.424;6.762;2023-02-03T05:57:27;8.37;;;3.10;;
9007;SDS011;62813;51.424;6.762;2023-02-03T05:59:57;9.30;;;3.20;;
9007;SDS011;62813;51.424;6.762;2023-02-03T06:02:23;8.40;;;3.00;;
9007;SDS011;62813;51.424;6.762;2023-02-03T06:04:50;5.17;;;2.77;;
9007;SDS011;62813;51.424;6.762;2023-02-03T06:07:16;8.37;;;2.93;;
9007;SDS011;62813;51.424;6.762;2023-02-03T06:09:43;6.93;;;2.77;;
9007;SDS011;62813;51.424;6.762;2023-02-03T06:12:12;8.67;;;3.10;;
9007;SDS011;62813;51.424;6.762;2023-02-03T06:14:40;7.93;;;2.63;;
9007;SDS011;62813;51.424;6.762;2023-02-03T06:17:07;8.23;;;2.80;;
9007;SDS011;62813;51.424;6.762;2023-02-03T06:19:33;10.43;;;2.90;;
9007;SDS011;62813;51.424;6.762;2023-02-03T06:22:00;9.70;;;3.23;;
9007;SDS011;62813;51.424;6.762;2023-02-03T06:24:29;9.07;;;2.80;;
9007;SDS011;62813;51.424;6.762;2023-02-03T06:26:56;8.50;;;2.83;;
9007;SDS011;62813;51.424;6.762;2023-02-03T06:29:23;9.23;;;2.83;;
9007;SDS011;62813;51.424;6.762;2023-02-03T06:31:49;10.53;;;2.63;;
9007;SDS011;62813;51.424;6.762;2023-02-03T06:34:16;6.57;;;2.60;;
9007;SDS011;62813;51.424;6.762;2023-02-03T06:36:43;8.17;;;2.53;;
9007;SDS011;62813;51.424;6.762;2023-02-03T06:39:14;8.13;;;3.23;;
9007;SDS011;62813;51.424;6.762;2023-02-03T06:41:41;10.27;;;2.40;;
9007;SDS011;62813;51.424;6.762;2023-02-03T06:44:08;10.40;;;2.70;;
9007;SDS011;62813;51.424;6.762;2023-02-03T06:46:35;6.47;;;2.53;;
9007;SDS011;62813;51.424;6.762;2023-02-03T06:49:01;2.77;;;2.10;;
9007;SDS011;62813;51.424;6.762;2023-02-03T06:51:28;5.63;;;2.87;;
9007;SDS011;62813;51.424;6.762;2023-02-03T06:53:54;6.10;;;3.00;;
9007;SDS011;62813;51.424;6.762;2023-02-03T06:56:21;7.23;;;3.17;;
9007;SDS011;62813;51.424;6.762;2023-02-03T06:58:48;7.70;;;2.50;;
9007;SDS011;62813;51.424;6.762;2023-02-03T07:01:14;6.53;;;2.73;;
9007;SDS011;62813;51.424;6.762;2023-02-03T07:03:41;6.13;;;2.87;;
9007;SDS011;62813;51.424;6.762;2023-02-03T07:06:07;7.13;;;3.13;;
9007;SDS011;62813;51.424;6.762;2023-02-03T07:08:34;9.00;;;3.10;;
9007;SDS011;62813;51.424;6.762;2023-02-03T07:11:00;9.60;;;2.90;;
9007;SDS011;62813;51.424;6.762;2023-02-03T07:13:27;8.87;;;3.07;;
9007;SDS011;62813;51.424;6.762;2023-02-03T07:15:53;16.20;;;2.70;;
9007;SDS011;62813;51.424;6.762;2023-02-03T07:18:22;9.50;;;3.03;;
9007;SDS011;62813;51.424;6.762;2023-02-03T07:21:10;8.40;;;3.00;;
9007;SDS011;62813;51.424;6.762;2023-02-03T07:23:37;10.43;;;2.77;;
9007;SDS011;62813;51.424;6.762;2023-02-03T07:26:05;9.57;;;2.90;;
9007;SDS011;62813;51.424;6.762;2023-02-03T07:28:33;6.80;;;3.10;;
9007;SDS011;62813;51.424;6.762;2023-02-03T07:31:01;7.10;;;2.83;;
9007;SDS011;62813;51.424;6.762;2023-02-03T07:33:30;6.43;;;2.40;;
9007;SDS011;62813;51.424;6.762;2023-02-03T07:35:57;9.40;;;3.00;;
9007;SDS011;62813;51.424;6.762;2023-02-03T07:38:27;10.17;;;3.00;;
9007;SDS011;62813;51.424;6.762;2023-02-03T07:40:54;13.27;;;2.87;;
9007;SDS011;62813;51.424;6.762;2023-02-03T07:43:22;9.27;;;2.70;;
9007;SDS011;62813;51.424;6.762;2023-02-03T07:45:49;7.57;;;2.60;;
9007;SDS011;62813;51.424;6.762;2023-02-03T07:48:15;5.60;;;2.60;;
9007;SDS011;62813;51.424;6.762;2023-02-03T07:50:42;6.37;;;2.77;;
9007;SDS011;62813;51.424;6.762;2023-02-03T07:53:10;6.90;;;2.73;;
9007;SDS011;62813;51.424;6.762;2023-02-03T07:55:37;6.10;;;2.53;;
9007;SDS011;62813;51.424;6.762;2023-02-03T07:58:05;7.37;;;2.37;;
9007;SDS011;62813;51.424;6.762;2023-02-03T08:00:32;7.20;;;2.63;;
9007;SDS011;62813;51.424;6.762;2023-02-03T08:02:59;7.43;;;2.60;;
9007;SDS011;62813;51.424;6.762;2023-02-03T08:05:26;8.90;;;2.50;;
9007;SDS011;62813;51.424;6.762;2023-02-03T08:07:53;7.20;;;2.60;;
9007;SDS011;62813;51.424;6.762;2023-02-03T08:10:19;6.90;;;2.70;;
9007;SDS011;62813;51.424;6.762;2023-02-03T08:12:46;7.60;;;2.40;;
9007;SDS011;62813;51.424;6.762;2023-02-03T08:15:13;8.03;;;2.80;;
9007;SDS011;62813;51.424;6.762;2023-02-03T08:17:40;7.60;;;2.60;;
9007;SDS011;62813;51.424;6.762;2023-02-03T08:20:07;7.07;;;3.30;;
9007;SDS011;62813;51.424;6.762;2023-02-03T08:22:35;6.83;;;2.57;;
9007;SDS011;62813;51.424;6.762;2023-02-03T08:25:02;16.30;;;3.63;;
9007;SDS011;62813;51.424;6.762;2023-02-03T08:27:29;6.17;;;2.53;;
9007;SDS011;62813;51.424;6.762;2023-02-03T08:29:57;9.00;;;3.17;;
9007;SDS011;62813;51.424;6.762;2023-02-03T08:32:24;10.87;;;3.63;;
9007;SDS011;62813;51.424;6.762;2023-02-03T08:34:50;6.90;;;2.60;;
9007;SDS011;62813;51.424;6.762;2023-02-03T08:37:18;9.50;;;2.83;;
9007;SDS011;62813;51.424;6.762;2023-02-03T08:39:47;10.60;;;3.17;;
9007;SDS011;62813;51.424;6.762;2023-02-03T08:42:14;7.00;;;2.57;;
9007;SDS011;62813;51.424;6.762;2023-02-03T08:44:41;12.63;;;2.90;;
9007;SDS011;62813;51.424;6.762;2023-02-03T08:47:09;7.80;;;2.70;;
9007;SDS011;62813;51.424;6.762;2023-02-03T08:49:36;7.90;;;2.53;;
9007;SDS011;62813;51.424;6.762;2023-02-03T08:52:05;6.27;;;2.73;;
9007;SDS011;62813;51.424;6.762;2023-02-03T08:54:33;7.10;;;2.77;;
9007;SDS011;62813;51.424;6.762;2023-02-03T08:57:00;7.60;;;2.77;;
9007;SDS011;62813;51.424;6.762;2023-02-03T08:59:26;5.73;;;2.60;;
9007;SDS011;62813;51.424;6.762;2023-02-03T09:01:54;8.50;;;2.97;;
9007;SDS011;62813;51.424;6.762;2023-02-03T09:04:20;7.40;;;2.40;;
9007;SDS011;62813;51.424;6.762;2023-02-03T09:06:50;9.50;;;3.20;;
9007;SDS011;62813;51.424;6.762;2023-02-03T09:09:20;9.27;;;2.77;;
9007;SDS011;62813;51.424;6.762;2023-02-03T09:11:47;10.13;;;3.10;;
9007;SDS011;62813;51.424;6.762;2023-02-03T09:14:13;7.77;;;2.50;;
9007;SDS011;62813;51.424;6.762;2023-02-03T09:16:40;6.80;;;2.63;;
9007;SDS011;62813;51.424;6.762;2023-02-03T09:19:07;7.97;;;2.47;;
9007;SDS011;62813;51.424;6.762;2023-02-03T09:21:34;6.03;;;2.80;;
9007;SDS011;62813;51.424;6.762;2023-02-03T09:24:05;6.67;;;2.90;;
9007;SDS011;62813;51.424;6.762;2023-02-03T09:26:32;6.70;;;2.40;;
9007;SDS011;62813;51.424;6.762;2023-02-03T09:28:59;5.73;;;2.60;;
9007;SDS011;62813;51.424;6.762;2023-02-03T09:31:25;5.87;;;2.77;;
9007;SDS011;62813;51.424;6.762;2023-02-03T09:33:52;5.10;;;2.63;;
9007;SDS011;62813;51.424;6.762;2023-02-03T09:36:19;4.93;;;2.80;;
9007;SDS011;62813;51.424;6.762;2023-02-03T09:38:45;8.23;;;2.90;;
9007;SDS011;62813;51.424;6.762;2023-02-03T09:44:03;6.50;;;2.80;;
9007;SDS011;62813;51.424;6.762;2023-02-03T09:46:32;9.37;;;2.93;;
9007;SDS011;62813;51.424;6.762;2023-02-03T09:49:06;6.40;;;2.63;;
9007;SDS011;62813;51.424;6.762;2023-02-03T09:51:42;7.57;;;3.00;;
9007;SDS011;62813;51.424;6.762;2023-02-03T09:54:15;8.57;;;2.87;;
9007;SDS011;62813;51.424;6.762;2023-02-03T09:56:51;6.53;;;2.97;;
9007;SDS011;62813;51.424;6.762;2023-02-03T09:59:21;5.93;;;2.70;;
9007;SDS011;62813;51.424;6.762;2023-02-03T10:07:01;7.77;;;3.20;;
9007;SDS011;62813;51.424;6.762;2023-02-03T10:15:21;10.07;;;3.63;;
9007;SDS011;62813;51.424;6.762;2023-02-03T10:18:11;15.40;;;3.97;;
9007;SDS011;62813;51.424;6.762;2023-02-03T10:20:42;11.73;;;3.33;;
9007;SDS011;62813;51.424;6.762;2023-02-03T10:23:15;9.03;;;3.13;;
9007;SDS011;62813;51.424;6.762;2023-02-03T10:25:52;9.03;;;3.63;;
9007;SDS011;62813;51.424;6.762;2023-02-03T10:28:24;9.97;;;3.40;;
9007;SDS011;62813;51.424;6.762;2023-02-03T10:30:59;10.07;;;3.03;;
9007;SDS011;62813;51.424;6.762;2023-02-03T10:33:30;11.87;;;3.90;;
9007;SDS011;62813;51.424;6.762;2023-02-03T10:41:36;9.33;;;2.97;;
9007;SDS011;62813;51.424;6.762;2023-02-03T10:44:04;9.80;;;4.47;;
9007;SDS011;62813;51.424;6.762;2023-02-03T10:46:33;19.23;;;6.33;;
9007;SDS011;62813;51.424;6.762;2023-02-03T10:49:03;18.60;;;7.67;;
9007;SDS011;62813;51.424;6.762;2023-02-03T10:51:33;22.47;;;8.40;;
9007;SDS011;62813;51.424;6.762;2023-02-03T10:54:03;29.17;;;10.43;;
9007;SDS011;62813;51.424;6.762;2023-02-03T10:56:30;28.53;;;8.90;;
9007;SDS011;62813;51.424;6.762;2023-02-03T10:59:01;16.20;;;6.53;;
9007;SDS011;62813;51.424;6.762;2023-02-03T11:01:45;23.87;;;7.27;;
9007;SDS011;62813;51.424;6.762;2023-02-03T11:04:28;19.30;;;6.00;;
9007;SDS011;62813;51.424;6.762;2023-02-03T11:06:58;18.63;;;6.20;;
9007;SDS011;62813;51.424;6.762;2023-02-03T11:09:38;15.90;;;5.50;;
9007;SDS011;62813;51.424;6.762;2023-02-03T11:12:16;18.80;;;5.33;;
9007;SDS011;62813;51.424;6.762;2023-02-03T11:14:48;16.40;;;4.83;;
9007;SDS011;62813;51.424;6.762;2023-02-03T11:17:34;13.40;;;5.07;;
9007;SDS011;62813;51.424;6.762;2023-02-03T11:20:03;8.10;;;4.07;;
9007;SDS011;62813;51.424;6.762;2023-02-03T11:22:39;9.93;;;3.37;;
9007;SDS011;62813;51.424;6.762;2023-02-03T11:25:24;9.07;;;2.87;;
9007;SDS011;62813;51.424;6.762;2023-02-03T11:28:02;14.80;;;2.73;;
9007;SDS011;62813;51.424;6.762;2023-02-03T11:30:39;9.00;;;3.70;;
9007;SDS011;62813;51.424;6.762;2023-02-03T11:33:15;9.17;;;3.87;;
9007;SDS011;62813;51.424;6.762;2023-02-03T11:35:53;11.97;;;3.60;;
9007;SDS011;62813;51.424;6.762;2023-02-03T11:38:29;10.53;;;4.30;;
9007;SDS011;62813;51.424;6.762;2023-02-03T11:41:01;12.83;;;4.20;;
9007;SDS011;62813;51.424;6.762;2023-02-03T11:43:29;8.53;;;3.53;;
9007;SDS011;62813;51.424;6.762;2023-02-03T11:45:59;9.70;;;3.37;;
9007;SDS011;62813;51.424;6.762;2023-02-03T11:48:29;13.33;;;4.30;;
9007;SDS011;62813;51.424;6.762;2023-02-03T11:51:17;10.53;;;3.33;;
9007;SDS011;62813;51.424;6.762;2023-02-03T11:54:26;11.53;;;4.10;;
9007;SDS011;62813;51.424;6.762;2023-02-03T11:57:14;16.37;;;4.70;;
9007;SDS011;62813;51.424;6.762;2023-02-03T12:00:18;11.80;;;3.83;;
9007;SDS011;62813;51.424;6.762;2023-02-03T12:08:53;13.63;;;4.30;;
9007;SDS011;62813;51.424;6.762;2023-02-03T12:11:59;8.93;;;3.90;;
9007;SDS011;62813;51.424;6.762;2023-02-03T12:14:46;12.13;;;3.60;;
9007;SDS011;62813;51.424;6.762;2023-02-03T12:17:29;6.67;;;3.33;;
9007;SDS011;62813;51.424;6.762;2023-02-03T12:28:20;12.40;;;3.60;;
9007;SDS011;62813;51.424;6.762;2023-02-03T12:31:03;9.23;;;3.50;;
9007;SDS011;62813;51.424;6.762;2023-02-03T12:33:39;9.97;;;3.67;;
9007;SDS011;62813;51.424;6.762;2023-02-03T12:36:14;9.73;;;3.93;;
9007;SDS011;62813;51.424;6.762;2023-02-03T12:39:05;13.57;;;3.90;;
9007;SDS011;62813;51.424;6.762;2023-02-03T12:41:43;9.20;;;3.47;;
9007;SDS011;62813;51.424;6.762;2023-02-03T12:44:22;10.20;;;3.53;;
9007;SDS011;62813;51.424;6.762;2023-02-03T12:46:57;9.27;;;3.43;;
9007;SDS011;62813;51.424;6.762;2023-02-03T12:49:44;10.23;;;3.60;;
9007;SDS011;62813;51.424;6.762;2023-02-03T12:52:20;11.13;;;3.30;;
9007;SDS011;62813;51.424;6.762;2023-02-03T12:55:02;9.53;;;3.63;;
9007;SDS011;62813;51.424;6.762;2023-02-03T12:57:41;10.53;;;3.57;;
9007;SDS011;62813;51.424;6.762;2023-02-03T13:03:15;9.67;;;3.07;;
9007;SDS011;62813;51.424;6.762;2023-02-03T13:05:55;8.37;;;3.37;;
9007;SDS011;62813;51.424;6.762;2023-02-03T13:08:36;11.57;;;3.50;;
9007;SDS011;62813;51.424;6.762;2023-02-03T13:14:27;9.97;;;3.80;;
9007;SDS011;62813;51.424;6.762;2023-02-03T13:20:01;9.73;;;3.63;;
9007;SDS011;62813;51.424;6.762;2023-02-03T13:22:31;8.50;;;3.70;;
9007;SDS011;62813;51.424;6.762;2023-02-03T13:25:05;9.50;;;4.23;;
9007;SDS011;62813;51.424;6.762;2023-02-03T13:35:56;11.40;;;4.40;;
9007;SDS011;62813;51.424;6.762;2023-02-03T13:38:41;11.60;;;4.07;;
9007;SDS011;62813;51.424;6.762;2023-02-03T13:41:43;10.13;;;3.70;;
9007;SDS011;62813;51.424;6.762;2023-02-03T13:44:18;9.70;;;3.53;;
9007;SDS011;62813;51.424;6.762;2023-02-03T13:46:50;8.30;;;2.90;;
9007;SDS011;62813;51.424;6.762;2023-02-03T13:49:28;15.13;;;3.60;;
9007;SDS011;62813;51.424;6.762;2023-02-03T13:51:58;9.60;;;3.50;;
9007;SDS011;62813;51.424;6.762;2023-02-03T13:57:01;9.63;;;2.90;;
9007;SDS011;62813;51.424;6.762;2023-02-03T14:04:55;12.63;;;3.90;;
9007;SDS011;62813;51.424;6.762;2023-02-03T14:12:32;9.87;;;3.13;;
9007;SDS011;62813;51.424;6.762;2023-02-03T14:15:12;10.03;;;3.20;;
9007;SDS011;62813;51.424;6.762;2023-02-03T14:25:26;8.43;;;3.33;;
9007;SDS011;62813;51.424;6.762;2023-02-03T14:27:58;9.57;;;2.90;;
9007;SDS011;62813;51.424;6.762;2023-02-03T14:30:27;7.13;;;2.80;;
9007;SDS011;62813;51.424;6.762;2023-02-03T14:32:55;11.10;;;3.03;;
9007;SDS011;62813;51.424;6.762;2023-02-03T14:37:50;13.33;;;3.47;;
9007;SDS011;62813;51.424;6.762;2023-02-03T14:40:22;13.73;;;3.30;;
9007;SDS011;62813;51.424;6.762;2023-02-03T14:45:58;14.13;;;3.47;;
9007;SDS011;62813;51.424;6.762;2023-02-03T14:57:18;15.97;;;4.43;;
9007;SDS011;62813;51.424;6.762;2023-02-03T15:05:37;14.50;;;3.37;;
9007;SDS011;62813;51.424;6.762;2023-02-03T15:13:56;12.13;;;3.83;;
9007;SDS011;62813;51.424;6.762;2023-02-03T15:16:44;10.67;;;3.43;;
9007;SDS011;62813;51.424;6.762;2023-02-03T15:19:15;15.47;;;4.43;;
9007;SDS011;62813;51.424;6.762;2023-02-03T15:21:44;14.73;;;4.20;;
9007;SDS011;62813;51.424;6.762;2023-02-03T15:24:12;10.83;;;3.43;;
9007;SDS011;62813;51.424;6.762;2023-02-03T15:26:44;15.33;;;3.40;;
9007;SDS011;62813;51.424;6.762;2023-02-03T15:29:19;15.57;;;3.67;;
9007;SDS011;62813;51.424;6.762;2023-02-03T15:31:48;21.83;;;4.07;;
9007;SDS011;62813;51.424;6.762;2023-02-03T15:34:25;14.83;;;4.30;;
9007;SDS011;62813;51.424;6.762;2023-02-03T15:36:59;13.87;;;3.63;;
9007;SDS011;62813;51.424;6.762;2023-02-03T15:39:34;10.43;;;4.00;;
9007;SDS011;62813;51.424;6.762;2023-02-03T15:42:15;17.47;;;4.43;;
9007;SDS011;62813;51.424;6.762;2023-02-03T15:45:12;18.80;;;5.03;;
9007;SDS011;62813;51.424;6.762;2023-02-03T15:47:50;14.53;;;4.83;;
9007;SDS011;62813;51.424;6.762;2023-02-03T15:56:15;16.27;;;4.77;;
9007;SDS011;62813;51.424;6.762;2023-02-03T15:58:46;16.00;;;4.27;;
9007;SDS011;62813;51.424;6.762;2023-02-03T16:01:14;18.47;;;5.20;;
9007;SDS011;62813;51.424;6.762;2023-02-03T16:03:48;14.00;;;3.90;;
9007;SDS011;62813;51.424;6.762;2023-02-03T16:06:34;11.17;;;3.83;;
9007;SDS011;62813;51.424;6.762;2023-02-03T16:09:06;13.43;;;4.37;;
9007;SDS011;62813;51.424;6.762;2023-02-03T16:12:02;14.20;;;4.43;;
9007;SDS011;62813;51.424;6.762;2023-02-03T16:14:32;14.60;;;4.20;;
9007;SDS011;62813;51.424;6.762;2023-02-03T16:17:00;14.67;;;4.30;;
9007;SDS011;62813;51.424;6.762;2023-02-03T16:19:31;11.73;;;4.20;;
9007;SDS011;62813;51.424;6.762;2023-02-03T16:22:03;21.37;;;4.83;;
9007;SDS011;62813;51.424;6.762;2023-02-03T16:27:20;16.60;;;4.53;;
9007;SDS011;62813;51.424;6.762;2023-02-03T16:32:59;16.70;;;4.80;;
9007;SDS011;62813;51.424;6.762;2023-02-03T16:35:47;13.00;;;4.37;;
9007;SDS011;62813;51.424;6.762;2023-02-03T16:38:32;15.93;;;3.77;;
9007;SDS011;62813;51.424;6.762;2023-02-03T16:41:17;17.97;;;4.40;;
9007;SDS011;62813;51.424;6.762;2023-02-03T16:44:09;18.00;;;4.33;;
9007;SDS011;62813;51.424;6.762;2023-02-03T16:46:56;20.93;;;4.33;;
9007;SDS011;62813;51.424;6.762;2023-02-03T16:49:43;17.67;;;4.63;;
9007;SDS011;62813;51.424;6.762;2023-02-03T16:52:29;18.03;;;4.20;;
9007;SDS011;62813;51.424;6.762;2023-02-03T16:54:57;20.40;;;5.37;;
9007;SDS011;62813;51.424;6.762;2023-02-03T16:57:24;18.13;;;4.03;;
9007;SDS011;62813;51.424;6.762;2023-02-03T16:59:51;20.70;;;4.20;;
9007;SDS011;62813;51.424;6.762;2023-02-03T17:02:17;16.77;;;4.20;;
9007;SDS011;62813;51.424;6.762;2023-02-03T17:04:44;16.37;;;4.70;;
9007;SDS011;62813;51.424;6.762;2023-02-03T17:07:11;18.23;;;4.50;;
9007;SDS011;62813;51.424;6.762;2023-02-03T17:09:38;19.30;;;4.53;;
9007;SDS011;62813;51.424;6.762;2023-02-03T17:12:04;19.63;;;4.97;;
9007;SDS011;62813;51.424;6.762;2023-02-03T17:14:31;17.47;;;4.60;;
9007;SDS011;62813;51.424;6.762;2023-02-03T17:16:58;17.57;;;4.57;;
9007;SDS011;62813;51.424;6.762;2023-02-03T17:19:25;13.27;;;4.47;;
9007;SDS011;62813;51.424;6.762;2023-02-03T17:21:51;17.83;;;4.30;;
9007;SDS011;62813;51.424;6.762;2023-02-03T17:24:18;14.43;;;3.93;;
9007;SDS011;62813;51.424;6.762;2023-02-03T17:26:45;12.20;;;3.50;;
9007;SDS011;62813;51.424;6.762;2023-02-03T17:29:11;13.83;;;4.10;;
9007;SDS011;62813;51.424;6.762;2023-02-03T17:31:38;22.63;;;4.47;;